Terminal Aerodrome Forecast
Issued by NWS

Home | Current Version | Previous Version | Text Only | Print | Product List | Glossary On
Versions: 1 2 3 4 5 6 7 8 9 10 11 12 13 14 15 16 17 18 19 20 21 22 23 24 25 26 27 28 29 30 31 32 33 34 35 36 37 38 39 40 41 42
000
FTUS46 KPDT 162029 AAB
TAFALW
TAF AMD
KALW 162029Z 1620/1718 00000KT 6SM BR SCT007 BKN035
      TEMPO 1620/1623 4SM BR BKN007
     FM170200 12004KT P6SM SCT007 OVC015
     FM170700 13006KT 3SM -SN BR OVC015
     FM170900 14005KT 4SM -FZRA BR OVC010
     FM171600 17007KT 5SM BR VCSH SCT010 OVC020=

USA.gov is the U.S. government's official web portal to all federal, state and local government web resources and services.